Appleton, Washington
Current Conditions -  °F | °C
As of 12:53 PM on Friday 28 Nov 2014 (Local Time) from KDLS Reporting Station
Light Rain Light Rain  
Wind Chill: 55°   Ceiling: 5500
Heat Index: 55°   Visibility: 10mi
Dew Point: 52°   Wind: 5mph
Humidity: 89%   Direction: 360°N
Pressure: 29.48"   Gusts: NA
Location:  45.81°N, 121.27°W
Report Text: KDLS 282053Z AUTO 36004KT 10SM -RA OVC055 13/11 A2948 RMK AO2 RAB35 SLP982 P0000 60003 T01280111 56037
Loading
Personal Weather Stations






























Interactive Weather Map New forecast layout! Learn more

10-Day Weather Forecast

Advertisements
Track Severe Weather on mobile